Time,TemperatureF,DewpointF,PressureIn,WindDirection,WindDirectionDegrees,WindSpeedMPH,WindSpeedGustMPH,Humidity,HourlyPrecipIn,Conditions,Clouds,dailyrainin,SolarRadiationWatts/m^2,SoftwareType,DateUTC
2013-07-23 00:21:00,69.0,58.0,-100.00,East,89,0.0,4.0,67,0.00,,,0.07,0.000000,,2013-07-23 07:21:00,
2013-07-23 00:33:00,69.0,58.0,-100.00,East,89,0.0,4.0,67,0.00,,,0.07,0.000000,,2013-07-23 07:33:00,
2013-07-23 00:42:00,69.0,58.0,-100.00,East,89,0.0,4.0,67,0.00,,,0.07,0.000000,,2013-07-23 07:42:00,
2013-07-23 00:52:00,69.0,58.0,-100.00,East,89,0.0,4.0,67,0.00,,,0.07,0.000000,,2013-07-23 07:52:00,
2013-07-23 01:21:00,67.0,56.0,-100.00,ESE,105,0.0,5.0,69,0.00,,,0.07,0.000000,,2013-07-23 08:21:00,
2013-07-23 01:33:00,67.0,56.0,-100.00,ESE,105,0.0,5.0,69,0.00,,,0.07,0.000000,,2013-07-23 08:33:00,
2013-07-23 01:43:00,67.0,56.0,-100.00,ESE,105,0.0,5.0,69,0.00,,,0.07,0.000000,,2013-07-23 08:43:00,
2013-07-23 01:52:00,67.0,56.0,-100.00,ESE,105,0.0,5.0,69,0.00,,,0.07,0.000000,,2013-07-23 08:52:00,
2013-07-23 02:22:00,66.0,56.0,-100.00,ENE,64,0.0,6.0,69,0.00,,,0.07,0.000000,,2013-07-23 09:22:00,
2013-07-23 02:33:00,66.0,56.0,-100.00,ENE,64,0.0,6.0,69,0.00,,,0.07,0.000000,,2013-07-23 09:33:00,
2013-07-23 02:42:00,66.0,56.0,-100.00,ENE,64,0.0,6.0,69,0.00,,,0.07,0.000000,,2013-07-23 09:42:00,
2013-07-23 02:52:00,66.0,56.0,-100.00,ENE,64,0.0,6.0,69,0.00,,,0.07,0.000000,,2013-07-23 09:52:00,
2013-07-23 03:32:00,67.0,57.0,-100.00,ESE,119,0.0,4.0,70,0.00,,,0.07,0.000000,,2013-07-23 10:32:00,
2013-07-23 03:43:00,67.0,57.0,-100.00,ESE,119,0.0,4.0,70,0.00,,,0.07,0.000000,,2013-07-23 10:43:00,
2013-07-23 03:52:00,67.0,57.0,-100.00,ESE,119,0.0,4.0,70,0.00,,,0.07,0.000000,,2013-07-23 10:52:00,
2013-07-23 04:43:00,65.0,56.0,-100.00,ESE,122,0.0,3.0,72,0.00,,,0.07,0.000000,,2013-07-23 11:43:00,
2013-07-23 04:52:00,65.0,56.0,-100.00,ESE,122,0.0,3.0,72,0.00,,,0.07,0.000000,,2013-07-23 11:52:00,
2013-07-23 05:22:00,67.0,58.0,-100.00,ESE,118,0.0,2.0,72,0.00,,,0.07,0.000000,,2013-07-23 12:22:00,
2013-07-23 05:33:00,67.0,58.0,-100.00,ESE,118,0.0,2.0,72,0.00,,,0.07,0.000000,,2013-07-23 12:33:00,
2013-07-23 05:43:00,67.0,58.0,-100.00,ESE,118,0.0,2.0,72,0.00,,,0.07,0.000000,,2013-07-23 12:43:00,
2013-07-23 06:22:00,66.0,57.0,-100.00,SE,143,0.0,5.0,72,0.00,,,-99.99,0.000000,,2013-07-23 13:22:00,
2013-07-23 06:32:00,66.0,57.0,-100.00,SE,143,0.0,5.0,72,0.00,,,-99.99,0.000000,,2013-07-23 13:32:00,
2013-07-23 06:43:00,66.0,57.0,-100.00,SE,143,0.0,5.0,72,0.00,,,-99.99,0.000000,,2013-07-23 13:43:00,
2013-07-23 06:52:00,66.0,57.0,-100.00,SE,143,0.0,5.0,72,0.00,,,-99.99,0.000000,,2013-07-23 13:52:00,
2013-07-23 07:44:00,64.0,56.0,-100.00,SE,126,0.0,4.0,75,0.00,,,0.07,14.000000,,2013-07-23 14:44:00,
2013-07-23 07:53:00,64.0,56.0,-100.00,SE,126,0.0,4.0,75,0.00,,,0.07,14.000000,,2013-07-23 14:53:00,
2013-07-23 08:43:00,71.0,58.0,-100.00,ESE,122,0.0,0.0,64,0.00,,,0.07,52.000000,,2013-07-23 15:43:00,
2013-07-23 08:52:00,71.0,58.0,-100.00,ESE,122,0.0,0.0,64,0.00,,,0.07,52.000000,,2013-07-23 15:52:00,
2013-07-23 10:32:00,82.0,55.0,-100.00,West,265,2.0,5.0,40,0.00,,,0.07,732.000000,,2013-07-23 17:32:00,
2013-07-23 10:53:00,82.0,55.0,-100.00,West,265,2.0,5.0,40,0.00,,,0.07,732.000000,,2013-07-23 17:53:00,
2013-07-23 11:45:00,83.0,55.0,-100.00,West,266,3.0,7.0,38,0.00,,,0.07,918.000000,,2013-07-23 18:45:00,
2013-07-23 11:53:00,83.0,55.0,-100.00,West,266,3.0,7.0,38,0.00,,,0.07,918.000000,,2013-07-23 18:53:00,
2013-07-23 12:45:00,86.0,55.0,-100.00,NE,38,3.0,10.0,35,0.00,,,0.07,1054.000000,,2013-07-23 19:45:00,
2013-07-23 12:52:00,86.0,55.0,-100.00,NE,38,3.0,10.0,35,0.00,,,0.07,1054.000000,,2013-07-23 19:52:00,
2013-07-23 13:22:00,89.0,55.0,-100.00,WNW,299,4.0,10.0,32,0.00,,,0.07,1117.000000,,2013-07-23 20:22:00,
2013-07-23 13:34:00,89.0,55.0,-100.00,WNW,299,4.0,10.0,32,0.00,,,0.07,1117.000000,,2013-07-23 20:34:00,
2013-07-23 13:44:00,89.0,55.0,-100.00,WNW,299,4.0,10.0,32,0.00,,,0.07,1117.000000,,2013-07-23 20:44:00,
2013-07-23 13:53:00,89.0,55.0,-100.00,WNW,299,4.0,10.0,32,0.00,,,0.07,1117.000000,,2013-07-23 20:53:00,
2013-07-23 14:45:00,90.0,52.0,-100.00,NW,304,4.0,13.0,28,0.00,,,0.06,1125.000000,,2013-07-23 21:45:00,
2013-07-23 14:53:00,90.0,52.0,-100.00,NW,304,4.0,13.0,28,0.00,,,0.06,1125.000000,,2013-07-23 21:53:00,
2013-07-23 15:43:00,92.0,52.0,-100.00,West,265,5.0,11.0,26,0.00,,,0.04,1073.000000,,2013-07-23 22:43:00,
2013-07-23 16:43:00,92.0,52.0,-100.00,West,269,5.0,12.0,26,0.00,,,-99.99,952.000000,,2013-07-23 23:43:00,
2013-07-23 16:54:00,92.0,52.0,-100.00,West,269,5.0,12.0,26,0.00,,,-99.99,952.000000,,2013-07-23 23:54:00,
2013-07-23 17:45:00,91.0,52.0,-100.00,NW,313,5.0,12.0,27,0.00,,,-99.99,774.000000,,2013-07-24 00:45:00,
2013-07-23 17:53:00,91.0,52.0,-100.00,NW,313,5.0,12.0,27,0.00,,,-99.99,774.000000,,2013-07-24 00:53:00,
2013-07-23 18:43:00,90.0,52.0,-100.00,WNW,285,4.0,12.0,28,0.00,,,0.01,552.000000,,2013-07-24 01:43:00,
2013-07-23 18:54:00,90.0,52.0,-100.00,WNW,285,4.0,12.0,28,0.00,,,0.01,552.000000,,2013-07-24 01:54:00,
2013-07-23 19:45:00,82.0,52.0,-100.00,West,269,4.0,14.0,36,0.00,,,0.01,257.000000,,2013-07-24 02:45:00,
2013-07-23 19:54:00,82.0,52.0,-100.00,West,269,4.0,14.0,36,0.00,,,0.01,257.000000,,2013-07-24 02:54:00,
2013-07-23 20:34:00,77.0,53.0,-100.00,WSW,253,0.0,9.0,44,0.00,,,0.00,37.000000,,2013-07-24 03:34:00,
2013-07-23 20:43:00,77.0,53.0,-100.00,WSW,253,0.0,9.0,44,0.00,,,0.00,37.000000,,2013-07-24 03:43:00,
2013-07-23 20:53:00,77.0,53.0,-100.00,WSW,253,0.0,9.0,44,0.00,,,0.00,37.000000,,2013-07-24 03:53:00,
2013-07-23 21:43:00,71.0,53.0,-100.00,East,96,0.0,7.0,53,0.00,,,0.00,1.000000,,2013-07-24 04:43:00,
2013-07-23 21:52:00,71.0,53.0,-100.00,East,96,0.0,7.0,53,0.00,,,0.00,1.000000,,2013-07-24 04:52:00,
2013-07-23 22:22:00,69.0,53.0,-100.00,ESE,116,0.0,0.0,57,0.00,,,0.00,0.000000,,2013-07-24 05:22:00,
2013-07-23 22:32:00,69.0,53.0,-100.00,ESE,116,0.0,0.0,57,0.00,,,0.00,0.000000,,2013-07-24 05:32:00,
2013-07-23 22:43:00,69.0,53.0,-100.00,ESE,116,0.0,0.0,57,0.00,,,0.00,0.000000,,2013-07-24 05:43:00,
2013-07-23 22:52:00,69.0,53.0,-100.00,ESE,116,0.0,0.0,57,0.00,,,0.00,0.000000,,2013-07-24 05:52:00,
2013-07-23 23:43:00,70.0,54.0,-100.00,SE,126,1.0,4.0,57,0.00,,,0.00,0.000000,,2013-07-24 06:43:00,
2013-07-23 23:53:00,70.0,54.0,-100.00,SE,126,1.0,4.0,57,0.00,,,0.00,0.000000,,2013-07-24 06:53:00,